Informes de METARS cercanos

 

LEAL - Alicante/El Alte, Spain
Distance from station: SSE 60km
Actualización: 24/09/2018 23:00
Muy nuboso
Muy nuboso
 Viento del ESE
Viento: ESE 7 km/h
Temperatura: 26°C
Rocío: 23°C
Humedad: 84%
Barómetro: 1021 hPa
Clouds: Muy nuboso
Visibility: 10 km
Cloud details: Parcialmente nuboso 457 m
Muy nuboso 732 m
2018/09/24 21:00 LEAL 242100Z 11004KT 080V140 9999 SCT015 BKN024 26/23 Q1021 NOSIG
LEVC - Valencia (civ/Mi, Spain
Distance from station: NNE 84km
Actualización: 24/09/2018 23:00
Despejado
Despejado
 Viento del varies
Viento: varies 6 km/h
Temperatura: 26°C
Rocío: 21°C
Humedad: 74%
Barómetro: 1022 hPa
Resumen: Despejado
Visibility: greater than 10 km
2018/09/24 21:00 LEVC 242100Z VRB03KT CAVOK 26/21 Q1022 NOSIG
 
LEAB - Albacete (civ/Mi, Spain
Distance from station: O 95km
Actualización: 24/09/2018 23:00
Despejado
Despejado
 Viento del SE
Viento: SE 9 km/h
Temperatura: 22°C
Rocío: 14°C
Humedad: 61%
Barómetro: 1023 hPa
Resumen: Despejado
Visibility: greater than 10 km
2018/09/24 21:00 LEAB 242100Z 14005KT 120V180 CAVOK 22/14 Q1023 NOSIG
LERI - Alcantarilla(Sp-, Spain
Distance from station: SSO 100km
Actualización: 24/09/2018 20:00
NOT Current
Despejado
Despejado
 Viento del ESE
Viento: ESE 11 km/h
Temperatura: 29°C
Rocío: 12°C
Humedad: 35%
Barómetro: 1019 hPa
Resumen: Despejado
Visibility: greater than 10 km
2018/09/24 18:00 LERI 241800Z 12006KT 080V140 CAVOK 29/12 Q1019 NOSIG
 
LELC - San Javier(Mil/C, Spain
Distance from station: S 113km
Actualización: 24/09/2018 23:00
Despejado
Despejado
 Viento del E
Viento: E 6 km/h
Temperatura: 25°C
Rocío: 20°C
Humedad: 74%
Barómetro: 1021 hPa
Resumen: Despejado
Visibility: greater than 10 km
2018/09/24 21:00 LELC 242100Z 08003KT 040V130 CAVOK 25/20 Q1021 NOSIG
LEIB - Ibiza/Es Codola, Spain
Distance from station: E 186km
Actualización: 24/09/2018 23:00
Few Clouds
Few Clouds
 Viento del ESE
Viento: ESE 7 km/h
Temperatura: 25°C
Rocío: 20°C
Humedad: 74%
Barómetro: 1021 hPa
Clouds: Few Clouds
Visibility: 10 km
Cloud details: Few Clouds 671 m
2018/09/24 21:00 LEIB 242100Z 11004KT 080V140 9999 FEW022 25/20 Q1021 NOSIG
 
LEAM - Almeria Airport, Spain
Distance from station: SSO 256km
Actualización: 24/09/2018 23:00
Despejado
Despejado
 Viento del N
Viento: N 7 km/h
Temperatura: 26°C
Rocío: 15°C
Humedad: 51%
Barómetro: 1020 hPa
Clouds: Despejado
Visibility: 10 km
2018/09/24 21:00 LEAM 242100Z AUTO 01004KT 330V060 9999 NCD 26/15 Q1020
LEMD - Madrid/Barajas, Spain
Distance from station: NO 305km
Actualización: 24/09/2018 23:00
Despejado
Despejado
 Viento del N
Viento: N 9 km/h
Temperatura: 26°C
Rocío: 11°C
Humedad: 39%
Barómetro: 1022 hPa
Resumen: Despejado
Visibility: greater than 10 km
2018/09/24 21:00 LEMD 242100Z 36005KT 320V030 CAVOK 26/11 Q1022 NOSIG
 
LEPA - Palma De Mallorc, Spain
Distance from station: ENE 313km
Actualización: 24/09/2018 23:00
Parcialmente nuboso
Parcialmente nuboso
 Viento del ENE
Viento: ENE 11 km/h
Temperatura: 24°C
Rocío: 21°C
Humedad: 83%
Barómetro: 1022 hPa
Clouds: Parcialmente nuboso
Visibility: 10 km
Cloud details: Few Clouds 610 m
Parcialmente nuboso 792 m
2018/09/24 21:00 LEPA 242100Z 07006KT 9999 FEW020 SCT026 24/21 Q1022 NOSIG